Time;durP1;ratioP1;P1;durP2;ratioP2;P2;SDS_P1;SDS_P2;PMS_P1;PMS_P2;Temp;Humidity;BMP_temperature;BMP_pressure;BME280_temperature;BME280_humidity;BME280_pressure;Samples;Min_cycle;Max_cycle;Signal;HPM_P1;HPM_P2
2021/10/15 00:01:28;;;;;;;6.20;5.70;;;15.00;99.90;;;;;;4969638;28;20622;-67
2021/10/15 00:03:54;;;;;;;5.93;5.43;;;15.10;99.90;;;;;;4936145;29;20421;-66
2021/10/15 00:06:19;;;;;;;5.80;5.30;;;15.00;99.90;;;;;;4954242;28;20455;-66
2021/10/15 00:08:45;;;;;;;5.40;5.00;;;15.10;99.90;;;;;;4954582;28;20273;-67
2021/10/15 00:11:11;;;;;;;5.93;5.40;;;15.00;99.90;;;;;;4953520;29;20328;-67
2021/10/15 00:13:36;;;;;;;6.40;5.90;;;15.00;99.90;;;;;;4953312;29;20186;-67
2021/10/15 00:16:02;;;;;;;5.70;5.30;;;15.00;99.90;;;;;;4954304;29;20188;-67
2021/10/15 00:18:28;;;;;;;6.00;5.47;;;15.00;99.90;;;;;;4953598;29;20189;-67
2021/10/15 00:20:54;;;;;;;6.07;5.57;;;15.00;99.80;;;;;;4953054;29;20417;-67
2021/10/15 00:23:19;;;;;;;6.77;5.20;;;15.10;99.90;;;;;;4953645;29;20180;-67
2021/10/15 00:25:45;;;;;;;6.50;5.90;;;15.00;99.90;;;;;;4953260;28;20189;-67
2021/10/15 00:28:11;;;;;;;6.93;6.23;;;15.00;99.60;;;;;;4975491;28;20190;-67
2021/10/15 00:30:37;;;;;;;6.43;5.80;;;15.00;99.40;;;;;;4958931;28;20571;-67
2021/10/15 00:33:02;;;;;;;7.97;6.03;;;15.00;99.30;;;;;;4976595;28;20185;-67
2021/10/15 00:35:28;;;;;;;6.60;5.93;;;15.00;99.70;;;;;;4976238;28;20186;-66
2021/10/15 00:37:54;;;;;;;6.23;5.73;;;14.90;99.20;;;;;;4975383;28;20181;-67
2021/10/15 00:40:20;;;;;;;8.37;5.57;;;14.90;99.00;;;;;;4976328;28;20664;-67
2021/10/15 00:42:47;;;;;;;6.53;6.03;;;14.90;99.40;;;;;;4975798;28;20182;-67
2021/10/15 00:45:12;;;;;;;6.10;5.70;;;14.80;98.80;;;;;;4976644;28;20429;-66
2021/10/15 00:47:38;;;;;;;5.80;5.40;;;14.70;99.10;;;;;;4975805;28;20455;-67
2021/10/15 00:50:05;;;;;;;6.80;6.20;;;14.70;99.00;;;;;;4976394;28;20263;-66
2021/10/15 00:52:31;;;;;;;7.00;5.63;;;14.80;98.90;;;;;;4963287;28;20431;-67
2021/10/15 00:54:57;;;;;;;6.83;5.47;;;14.70;98.50;;;;;;4956257;29;20606;-67
2021/10/15 00:57:23;;;;;;;6.70;5.47;;;14.70;99.20;;;;;;4956832;29;20629;-67
2021/10/15 00:59:50;;;;;;;6.00;5.40;;;14.60;98.40;;;;;;4956462;29;20478;-67
2021/10/15 01:02:16;;;;;;;5.50;5.00;;;14.60;98.60;;;;;;4956995;29;20442;-66
2021/10/15 01:04:41;;;;;;;5.63;5.23;;;14.60;98.50;;;;;;4956061;29;20440;-67
2021/10/15 01:07:08;;;;;;;6.10;5.50;;;14.70;98.90;;;;;;4956746;28;20190;-67
2021/10/15 01:09:35;;;;;;;6.67;6.17;;;14.60;98.70;;;;;;4955944;29;20626;-66
2021/10/15 01:12:02;;;;;;;6.20;5.60;;;14.50;99.00;;;;;;4939021;29;20905;-67
2021/10/15 01:14:29;;;;;;;6.53;5.93;;;14.50;98.30;;;;;;4956763;29;20469;-67
2021/10/15 01:16:55;;;;;;;5.57;5.17;;;14.50;98.00;;;;;;4955808;29;20775;-67
2021/10/15 01:19:21;;;;;;;6.50;4.83;;;14.50;98.50;;;;;;4956597;29;20413;-67
2021/10/15 01:21:48;;;;;;;5.67;5.17;;;14.50;98.30;;;;;;4955561;29;20778;-67
2021/10/15 01:24:18;;;;;;;6.03;5.53;;;14.50;98.30;;;;;;4939415;29;20409;-66
2021/10/15 01:26:44;;;;;;;5.00;4.60;;;14.40;98.10;;;;;;4961118;28;20431;-67
2021/10/15 01:29:10;;;;;;;5.53;5.03;;;14.40;99.90;;;;;;4975181;28;20621;-67
2021/10/15 01:31:36;;;;;;;4.70;4.33;;;14.40;98.90;;;;;;4975724;28;20419;-66
2021/10/15 01:34:02;;;;;;;7.13;4.93;;;14.50;99.90;;;;;;4972931;28;20430;-67
2021/10/15 01:36:28;;;;;;;7.23;4.53;;;14.50;98.90;;;;;;4975638;28;20180;-66
2021/10/15 01:38:54;;;;;;;5.70;5.30;;;14.60;99.90;;;;;;4974264;28;20177;-67
2021/10/15 01:41:20;;;;;;;5.83;4.67;;;14.60;99.20;;;;;;4975714;28;20191;-67
2021/10/15 01:43:46;;;;;;;5.57;5.07;;;14.60;98.50;;;;;;4957196;28;20413;-67
2021/10/15 01:46:12;;;;;;;4.87;4.43;;;14.60;98.60;;;;;;4975344;28;20410;-67
2021/10/15 01:48:37;;;;;;;6.27;5.77;;;14.50;98.30;;;;;;4975346;28;20834;-67
2021/10/15 01:51:03;;;;;;;5.07;4.77;;;14.60;98.30;;;;;;4972903;28;20275;-67
2021/10/15 01:53:30;;;;;;;5.57;4.90;;;14.50;98.50;;;;;;4975218;28;20271;-67
2021/10/15 01:55:56;;;;;;;6.30;4.30;;;14.60;98.90;;;;;;4974501;28;20207;-67
2021/10/15 01:58:21;;;;;;;5.77;5.37;;;14.60;98.70;;;;;;4974888;28;20934;-67
2021/10/15 02:00:48;;;;;;;6.27;5.33;;;14.60;98.00;;;;;;4974429;28;20202;-67
2021/10/15 02:03:14;;;;;;;5.73;5.10;;;14.60;98.10;;;;;;4975122;28;20176;-66
2021/10/15 02:05:40;;;;;;;5.80;5.20;;;14.70;98.20;;;;;;4974836;28;20412;-67
2021/10/15 02:08:06;;;;;;;5.83;5.30;;;14.70;98.90;;;;;;4974623;28;20895;-67
2021/10/15 02:10:32;;;;;;;5.27;4.87;;;14.60;97.70;;;;;;4974690;28;20475;-67
2021/10/15 02:12:58;;;;;;;5.37;4.87;;;14.60;97.80;;;;;;4973901;28;20423;-66
2021/10/15 02:15:24;;;;;;;6.00;5.43;;;14.60;98.20;;;;;;4974608;28;20185;-66
2021/10/15 02:17:50;;;;;;;6.00;4.60;;;14.60;98.40;;;;;;4957389;28;20534;-67
2021/10/15 02:20:17;;;;;;;5.87;5.37;;;14.60;98.00;;;;;;4954951;28;20436;-67
2021/10/15 02:22:45;;;;;;;8.03;5.10;;;14.60;98.10;;;;;;4956157;28;20785;-67
2021/10/15 02:25:16;;;;;;;5.90;5.17;;;14.60;98.00;;;;;;4955449;29;20444;-67
2021/10/15 02:27:42;;;;;;;5.23;4.83;;;14.60;97.70;;;;;;4955005;29;20901;-67
2021/10/15 02:30:10;;;;;;;7.07;4.80;;;14.50;97.70;;;;;;4937679;29;20457;-67
2021/10/15 02:32:36;;;;;;;5.27;4.87;;;14.50;99.50;;;;;;4955255;29;20409;-67
2021/10/15 02:35:04;;;;;;;6.40;5.17;;;14.50;98.30;;;;;;4954169;29;20544;-66
2021/10/15 02:37:30;;;;;;;7.17;5.83;;;14.40;98.10;;;;;;4955120;29;20417;-67
2021/10/15 02:39:55;;;;;;;7.57;4.90;;;14.40;98.40;;;;;;4953903;29;20422;-67
2021/10/15 02:42:21;;;;;;;6.47;5.40;;;14.40;98.70;;;;;;4968833;28;20549;-67
2021/10/15 02:44:47;;;;;;;6.43;5.70;;;14.40;98.20;;;;;;4973563;28;20169;-67
2021/10/15 02:47:13;;;;;;;5.80;5.07;;;14.40;98.10;;;;;;4956921;28;20484;-67
2021/10/15 02:49:39;;;;;;;7.40;5.70;;;14.40;98.30;;;;;;4973300;28;20507;-66
2021/10/15 02:52:04;;;;;;;11.17;5.63;;;14.40;98.30;;;;;;4973397;28;20231;-67
2021/10/15 02:54:30;;;;;;;5.40;5.00;;;14.40;98.00;;;;;;4974127;28;20180;-67
2021/10/15 02:56:56;;;;;;;9.80;5.70;;;14.40;98.40;;;;;;4973289;28;20470;-67
2021/10/15 02:59:22;;;;;;;6.43;5.70;;;14.30;98.30;;;;;;4974343;28;20212;-67
2021/10/15 03:01:47;;;;;;;5.80;5.40;;;14.30;98.50;;;;;;4955921;28;20181;-67
2021/10/15 03:04:13;;;;;;;6.83;6.13;;;14.30;98.40;;;;;;4973980;28;20180;-67
2021/10/15 03:06:39;;;;;;;8.30;7.10;;;14.30;98.40;;;;;;4963500;28;20180;-67
2021/10/15 03:09:05;;;;;;;7.40;6.00;;;14.30;98.40;;;;;;4953684;29;20275;-67
2021/10/15 03:11:30;;;;;;;6.00;5.40;;;14.20;98.70;;;;;;4954827;29;20324;-67
2021/10/15 03:13:56;;;;;;;6.70;6.10;;;14.30;98.60;;;;;;4953358;29;20181;-67
2021/10/15 03:16:22;;;;;;;6.97;6.17;;;14.20;98.40;;;;;;4954522;29;20185;-67
2021/10/15 03:18:47;;;;;;;7.33;6.07;;;14.20;98.80;;;;;;4936607;29;20181;-68
2021/10/15 03:21:13;;;;;;;8.20;6.40;;;14.20;98.70;;;;;;4954517;29;20187;-67
2021/10/15 03:23:39;;;;;;;7.33;6.60;;;14.20;98.90;;;;;;4954386;29;20188;-67
2021/10/15 03:26:04;;;;;;;5.87;5.37;;;14.20;99.10;;;;;;4936478;29;20252;-67
2021/10/15 03:28:30;;;;;;;7.07;6.17;;;14.10;99.00;;;;;;4954646;28;20185;-67
2021/10/15 03:30:56;;;;;;;6.90;6.30;;;14.10;99.30;;;;;;4936590;29;20219;-67
2021/10/15 03:33:22;;;;;;;6.37;5.87;;;14.10;99.60;;;;;;4937119;29;20177;-67
2021/10/15 03:35:47;;;;;;;7.73;6.73;;;14.10;99.60;;;;;;4953826;29;20188;-67
2021/10/15 03:38:13;;;;;;;7.60;6.90;;;14.10;99.80;;;;;;4954219;29;20189;-67
2021/10/15 03:40:39;;;;;;;9.10;8.40;;;14.10;99.70;;;;;;4954123;29;20654;-66
2021/10/15 03:43:04;;;;;;;8.43;6.73;;;14.10;99.80;;;;;;4953645;29;20380;-67
2021/10/15 03:45:30;;;;;;;8.77;7.97;;;14.10;99.70;;;;;;4954541;29;20773;-66
2021/10/15 03:47:56;;;;;;;9.60;8.70;;;14.10;99.80;;;;;;4953929;29;20183;-66
2021/10/15 03:50:21;;;;;;;7.53;6.70;;;14.10;99.50;;;;;;4954438;29;20215;-67
2021/10/15 03:52:47;;;;;;;14.40;8.30;;;14.10;99.40;;;;;;4966131;28;20256;-67
2021/10/15 03:55:14;;;;;;;9.20;7.07;;;14.10;99.40;;;;;;4973884;28;20912;-66
2021/10/15 03:57:40;;;;;;;9.63;8.80;;;14.20;99.50;;;;;;4956519;28;20434;-66
2021/10/15 04:00:09;;;;;;;12.20;6.80;;;14.10;99.50;;;;;;4973144;28;20637;-67
2021/10/15 04:02:44;;;;;;;10.57;9.70;;;14.20;99.90;;;;;;4977186;28;20761;-67
2021/10/15 04:05:11;;;;;;;7.80;6.83;;;14.20;99.90;;;;;;4977106;28;20895;-67
2021/10/15 04:07:37;;;;;;;10.60;9.70;;;14.20;99.50;;;;;;4977510;28;20494;-66
2021/10/15 04:10:04;;;;;;;10.40;9.43;;;14.30;99.20;;;;;;4976690;28;20498;-67
2021/10/15 04:12:30;;;;;;;9.60;7.17;;;14.20;99.10;;;;;;4966459;28;20433;-67
2021/10/15 04:14:57;;;;;;;8.80;7.90;;;14.20;99.00;;;;;;4940486;29;20428;-67
2021/10/15 04:17:22;;;;;;;10.10;9.30;;;14.20;99.70;;;;;;4958045;29;20188;-66
2021/10/15 04:19:48;;;;;;;6.80;6.20;;;14.20;99.60;;;;;;4957760;29;20432;-67
2021/10/15 04:22:14;;;;;;;8.53;7.70;;;14.20;99.80;;;;;;4958064;29;20617;-67
2021/10/15 04:24:40;;;;;;;7.20;6.30;;;14.20;99.70;;;;;;4957924;29;20619;-67
2021/10/15 04:27:07;;;;;;;9.60;8.67;;;14.20;99.90;;;;;;4956998;29;20267;-67
2021/10/15 04:29:32;;;;;;;10.33;8.30;;;14.20;99.60;;;;;;4957795;28;20585;-66
2021/10/15 04:31:59;;;;;;;9.50;8.70;;;14.20;99.30;;;;;;4957431;28;20510;-66
2021/10/15 04:34:25;;;;;;;7.30;6.23;;;14.20;99.20;;;;;;4957762;29;20518;-67
2021/10/15 04:36:50;;;;;;;9.83;9.03;;;14.20;99.30;;;;;;4957400;29;20913;-67
2021/10/15 04:39:16;;;;;;;6.07;5.47;;;14.20;99.50;;;;;;4957643;29;20462;-67
2021/10/15 04:41:42;;;;;;;8.80;6.47;;;14.20;99.50;;;;;;4957868;29;20281;-66
2021/10/15 04:44:08;;;;;;;8.17;7.50;;;14.10;99.20;;;;;;4956724;28;20177;-67
2021/10/15 04:46:34;;;;;;;8.93;8.00;;;14.10;99.30;;;;;;4957563;29;20579;-66
2021/10/15 04:49:00;;;;;;;7.00;6.30;;;14.10;99.60;;;;;;4956836;29;20412;-67
2021/10/15 04:51:26;;;;;;;6.93;6.40;;;14.10;99.90;;;;;;4957827;28;20515;-67
2021/10/15 04:53:52;;;;;;;7.60;6.90;;;14.10;99.90;;;;;;4957054;28;20428;-66
2021/10/15 04:56:17;;;;;;;7.63;6.60;;;14.10;99.90;;;;;;4957381;29;20178;-66
2021/10/15 04:58:43;;;;;;;9.10;8.40;;;13.90;99.90;;;;;;4957424;29;20188;-66
2021/10/15 05:01:09;;;;;;;8.40;7.63;;;13.80;99.90;;;;;;4956788;29;20463;-66
2021/10/15 05:03:35;;;;;;;9.10;6.63;;;13.90;99.90;;;;;;4957415;28;20182;-66
2021/10/15 05:06:01;;;;;;;8.17;7.40;;;13.90;99.90;;;;;;4956675;29;20448;-66
2021/10/15 05:08:31;;;;;;;10.33;7.20;;;13.90;99.90;;;;;;4956899;29;20958;-66
2021/10/15 05:10:57;;;;;;;8.27;7.33;;;14.00;99.90;;;;;;4956320;29;20714;-67
2021/10/15 05:13:23;;;;;;;6.77;6.27;;;14.00;99.90;;;;;;4956461;28;20417;-67
2021/10/15 05:15:49;;;;;;;9.60;8.70;;;14.00;99.90;;;;;;4957270;28;20437;-66
2021/10/15 05:18:15;;;;;;;9.93;7.03;;;14.00;99.90;;;;;;4956695;29;20417;-67
2021/10/15 05:20:44;;;;;;;8.43;7.37;;;14.00;99.90;;;;;;4956729;29;20421;-66
2021/10/15 05:23:10;;;;;;;9.47;7.03;;;14.00;99.90;;;;;;4939224;29;20435;-66
2021/10/15 05:25:36;;;;;;;9.00;6.87;;;14.00;99.90;;;;;;4956605;29;20420;-66
2021/10/15 05:28:03;;;;;;;11.37;7.37;;;14.00;99.90;;;;;;4956265;29;20775;-67
2021/10/15 05:30:28;;;;;;;8.67;7.87;;;14.10;99.90;;;;;;4963319;28;20459;-66
2021/10/15 05:32:54;;;;;;;8.97;7.20;;;14.10;99.90;;;;;;4975412;28;20423;-67
2021/10/15 05:35:20;;;;;;;8.57;7.80;;;14.00;99.90;;;;;;4968588;28;20183;-66
2021/10/15 05:37:46;;;;;;;7.80;7.00;;;14.00;99.90;;;;;;4956607;29;20193;-67
2021/10/15 05:40:12;;;;;;;8.63;7.93;;;14.10;99.90;;;;;;4957714;28;20868;-67
2021/10/15 05:42:47;;;;;;;8.53;7.70;;;14.10;99.90;;;;;;4975902;28;20438;-67
2021/10/15 05:45:13;;;;;;;12.80;7.40;;;14.10;99.90;;;;;;4975317;28;20789;-66
2021/10/15 05:47:44;;;;;;;9.13;7.63;;;14.10;99.90;;;;;;4975670;28;20465;-66
2021/10/15 05:50:11;;;;;;;7.60;6.50;;;14.10;99.90;;;;;;4974870;28;20470;-66
2021/10/15 05:52:46;;;;;;;9.30;8.43;;;14.00;99.90;;;;;;4971935;28;20426;-67
2021/10/15 06:00:27;;;;;;;10.73;9.80;;;14.10;99.90;;;;;;4941770;29;20407;-67
2021/10/15 06:02:53;;;;;;;8.03;7.20;;;14.10;99.90;;;;;;4939081;29;20408;-67
2021/10/15 06:16:25;;;;;;;8.50;7.57;;;13.90;99.90;;;;;;4955688;29;20875;-67
2021/10/15 06:19:04;;;;;;;8.50;7.70;;;13.80;99.90;;;;;;4954745;29;20422;-66
2021/10/15 06:21:32;;;;;;;9.57;6.80;;;13.80;99.90;;;;;;4955999;28;20407;-67
2021/10/15 06:23:58;;;;;;;10.63;9.60;;;13.80;99.90;;;;;;4937597;29;20436;-67
2021/10/15 06:26:23;;;;;;;10.10;8.67;;;13.80;99.90;;;;;;4956161;28;20474;-67
2021/10/15 06:28:49;;;;;;;10.10;6.90;;;13.80;99.90;;;;;;4960952;28;20271;-67
2021/10/15 06:31:15;;;;;;;9.00;8.17;;;13.90;99.90;;;;;;4969237;28;20623;-67
2021/10/15 06:33:41;;;;;;;8.37;7.00;;;13.90;99.90;;;;;;4970577;28;20691;-67
2021/10/15 06:36:07;;;;;;;8.80;7.90;;;14.00;99.90;;;;;;4964009;28;20258;-66
2021/10/15 06:38:32;;;;;;;8.37;7.33;;;14.00;99.90;;;;;;4958443;28;20573;-68
2021/10/15 06:40:58;;;;;;;9.80;8.40;;;14.10;99.90;;;;;;4969361;28;20187;-68
2021/10/15 06:43:27;;;;;;;8.97;8.17;;;14.10;99.90;;;;;;4965327;28;20208;-68
2021/10/15 06:45:59;;;;;;;7.60;6.80;;;14.10;99.90;;;;;;5068818;28;20595;-68
2021/10/15 06:48:25;;;;;;;8.23;7.43;;;14.20;99.90;;;;;;5069755;28;20921;-67
2021/10/15 06:50:51;;;;;;;10.73;7.40;;;14.30;99.90;;;;;;5068739;28;20188;-69
2021/10/15 06:53:16;;;;;;;8.60;7.20;;;14.40;99.90;;;;;;5067779;28;20177;-69
2021/10/15 06:55:42;;;;;;;8.57;7.67;;;14.40;99.90;;;;;;5069408;28;20180;-69
2021/10/15 06:58:08;;;;;;;7.83;7.03;;;14.40;99.90;;;;;;5067796;28;20244;-69
2021/10/15 07:00:34;;;;;;;9.40;8.70;;;14.40;99.90;;;;;;5068386;28;20180;-70
2021/10/15 07:02:59;;;;;;;7.70;6.73;;;14.40;99.90;;;;;;5069145;28;20165;-69
2021/10/15 07:05:25;;;;;;;8.47;7.30;;;14.40;99.90;;;;;;5069195;28;20199;-70
2021/10/15 07:07:52;;;;;;;9.80;6.87;;;14.30;99.90;;;;;;5068855;28;20191;-69
2021/10/15 07:10:17;;;;;;;10.60;9.07;;;14.20;99.90;;;;;;5069007;28;20180;-69
2021/10/15 07:12:45;;;;;;;7.00;6.40;;;14.20;99.90;;;;;;5069102;28;20408;-69
2021/10/15 07:15:15;;;;;;;9.73;8.93;;;14.20;99.90;;;;;;5068443;28;20187;-69
2021/10/15 07:17:42;;;;;;;8.77;7.40;;;14.20;99.90;;;;;;5069401;28;20425;-69
2021/10/15 07:20:09;;;;;;;9.93;9.10;;;14.20;99.90;;;;;;5068484;28;20480;-69
2021/10/15 07:22:36;;;;;;;9.03;8.30;;;14.20;99.90;;;;;;5069258;28;20488;-69
2021/10/15 07:25:03;;;;;;;7.87;7.10;;;14.10;99.90;;;;;;5067222;28;20462;-69
2021/10/15 07:27:28;;;;;;;8.50;7.70;;;14.10;99.90;;;;;;5068870;28;20403;-70
2021/10/15 07:29:54;;;;;;;8.63;7.73;;;14.10;99.90;;;;;;5069215;28;20909;-69
2021/10/15 07:32:20;;;;;;;7.97;7.20;;;14.20;99.90;;;;;;5068456;28;20185;-69
2021/10/15 07:34:46;;;;;;;7.90;7.20;;;14.20;99.90;;;;;;5068548;28;20180;-69
2021/10/15 07:37:12;;;;;;;9.30;7.10;;;14.20;99.90;;;;;;5068596;28;20182;-69
2021/10/15 07:39:38;;;;;;;7.77;7.03;;;14.10;99.90;;;;;;5068765;28;20228;-69
2021/10/15 07:42:04;;;;;;;7.80;7.10;;;14.20;99.90;;;;;;5068277;28;20446;-67
2021/10/15 07:44:31;;;;;;;7.83;7.10;;;14.20;99.90;;;;;;5066929;28;20478;-70
2021/10/15 07:46:56;;;;;;;7.63;6.93;;;14.20;99.90;;;;;;5068709;28;20428;-71
2021/10/15 07:49:22;;;;;;;8.57;7.00;;;14.20;99.90;;;;;;5067500;28;20426;-69
2021/10/15 07:51:48;;;;;;;8.00;7.30;;;14.20;99.90;;;;;;5068018;28;20185;-68
2021/10/15 07:54:14;;;;;;;8.27;7.33;;;14.30;99.90;;;;;;5067693;28;20581;-69
2021/10/15 07:56:40;;;;;;;7.57;6.87;;;14.20;99.90;;;;;;5059215;28;20204;-69
2021/10/15 07:59:06;;;;;;;7.80;6.80;;;14.20;99.90;;;;;;5054086;28;20921;-69
2021/10/15 08:01:31;;;;;;;7.77;6.97;;;14.20;99.90;;;;;;5053997;28;20903;-69
2021/10/15 08:03:59;;;;;;;10.27;9.27;;;14.30;99.90;;;;;;5052666;28;20483;-68
2021/10/15 08:06:25;;;;;;;10.33;7.30;;;14.30;99.90;;;;;;5051423;28;20177;-70
2021/10/15 08:08:51;;;;;;;8.00;7.30;;;14.20;99.90;;;;;;5053323;28;20423;-70
2021/10/15 08:11:18;;;;;;;10.03;7.43;;;14.20;99.90;;;;;;5054248;28;20415;-68
2021/10/15 08:13:45;;;;;;;10.40;7.87;;;14.20;99.90;;;;;;5055018;28;20408;-68
2021/10/15 08:16:10;;;;;;;8.30;7.47;;;14.20;99.90;;;;;;5054253;28;20428;-68
2021/10/15 08:18:36;;;;;;;8.37;7.67;;;14.20;99.90;;;;;;5054764;28;20469;-68
2021/10/15 08:21:02;;;;;;;11.60;8.10;;;14.20;99.90;;;;;;5054160;28;20187;-68
2021/10/15 08:23:29;;;;;;;9.23;7.70;;;14.20;99.90;;;;;;5053510;28;20181;-69
2021/10/15 08:25:57;;;;;;;8.63;7.30;;;14.20;99.90;;;;;;5054752;28;20262;-68
2021/10/15 08:28:24;;;;;;;7.33;6.57;;;14.10;99.90;;;;;;5052890;28;20440;-68
2021/10/15 08:30:50;;;;;;;8.67;7.77;;;14.20;99.90;;;;;;5054735;28;20415;-68
2021/10/15 08:33:16;;;;;;;11.73;7.90;;;14.20;99.90;;;;;;5052253;28;20420;-68
2021/10/15 08:35:42;;;;;;;7.13;6.43;;;14.20;99.90;;;;;;5053480;28;20457;-68
2021/10/15 08:38:08;;;;;;;8.50;7.70;;;14.30;99.90;;;;;;5053278;28;20419;-68
2021/10/15 08:40:33;;;;;;;9.67;7.47;;;14.30;99.90;;;;;;5056351;28;20186;-68
2021/10/15 08:43:00;;;;;;;8.03;7.23;;;14.30;99.90;;;;;;5056403;28;20182;-68
2021/10/15 08:45:29;;;;;;;8.57;6.97;;;14.30;99.90;;;;;;5053539;28;20272;-68
2021/10/15 08:47:55;;;;;;;6.80;6.30;;;14.30;99.90;;;;;;5051813;28;20413;-68
2021/10/15 08:50:23;;;;;;;8.30;7.50;;;14.30;99.90;;;;;;5052350;28;20432;-68
2021/10/15 08:52:49;;;;;;;9.33;7.60;;;14.30;99.90;;;;;;5054113;28;20421;-68
2021/10/15 08:55:16;;;;;;;8.47;7.20;;;14.30;99.90;;;;;;5053467;28;20507;-69
2021/10/15 08:57:53;;;;;;;8.40;7.70;;;14.40;99.90;;;;;;5054234;28;20421;-69
2021/10/15 09:00:56;;;;;;;8.80;8.00;;;14.40;99.90;;;;;;5053380;28;20412;-69
2021/10/15 09:03:23;;;;;;;8.13;7.40;;;14.40;99.90;;;;;;5045955;28;20430;-69
2021/10/15 09:06:00;;;;;;;9.90;7.20;;;14.40;99.90;;;;;;5054715;28;20474;-70
2021/10/15 09:08:42;;;;;;;11.80;7.07;;;14.40;99.90;;;;;;5052121;28;20457;-69
2021/10/15 09:11:33;;;;;;;9.60;8.60;;;14.40;99.90;;;;;;5053331;28;20413;-70
2021/10/15 09:14:28;;;;;;;8.13;7.20;;;14.40;99.90;;;;;;5054089;28;20412;-68
2021/10/15 09:17:00;;;;;;;11.60;8.70;;;14.40;99.90;;;;;;5044934;28;20420;-70
2021/10/15 09:19:33;;;;;;;9.67;8.50;;;14.40;99.90;;;;;;5053279;28;20463;-69
2021/10/15 09:22:18;;;;;;;9.80;8.83;;;14.30;99.90;;;;;;5053796;28;20487;-69
2021/10/15 09:24:49;;;;;;;15.07;10.40;;;14.20;99.90;;;;;;5053693;28;20480;-69
2021/10/15 09:27:17;;;;;;;11.73;10.33;;;14.20;99.90;;;;;;5052773;28;20462;-69
2021/10/15 09:29:45;;;;;;;12.27;8.77;;;14.20;99.90;;;;;;5066564;28;20430;-69
2021/10/15 09:32:11;;;;;;;9.60;8.60;;;14.30;99.90;;;;;;5072080;28;20440;-69
2021/10/15 09:34:39;;;;;;;9.73;8.80;;;14.20;99.90;;;;;;5065111;28;20785;-69
2021/10/15 09:37:35;;;;;;;11.53;10.33;;;14.20;99.90;;;;;;5068869;28;20430;-69
2021/10/15 09:40:12;;;;;;;10.50;9.40;;;14.20;99.90;;;;;;5060785;28;20428;-68
2021/10/15 09:42:41;;;;;;;9.80;8.83;;;14.20;99.90;;;;;;5033615;28;20499;-68
2021/10/15 09:45:16;;;;;;;9.47;8.57;;;14.20;99.90;;;;;;5044833;28;20467;-68
2021/10/15 09:47:50;;;;;;;10.80;9.70;;;14.30;99.90;;;;;;5055388;28;20418;-68
2021/10/15 09:50:22;;;;;;;10.40;9.40;;;14.20;99.90;;;;;;5052800;28;20384;-68
2021/10/15 09:52:50;;;;;;;11.37;10.57;;;14.20;99.90;;;;;;5053035;28;20399;-68
2021/10/15 09:55:33;;;;;;;10.87;9.90;;;14.20;99.90;;;;;;5052418;28;20416;-68
2021/10/15 09:58:19;;;;;;;9.63;8.83;;;14.30;99.90;;;;;;5033271;28;20403;-68
2021/10/15 10:00:51;;;;;;;9.40;8.50;;;14.30;99.90;;;;;;5033368;28;20461;-68
2021/10/15 10:03:18;;;;;;;11.37;10.17;;;14.30;99.90;;;;;;5039460;28;20826;-68
2021/10/15 10:05:44;;;;;;;10.97;10.07;;;14.40;99.90;;;;;;5059059;28;20816;-68
2021/10/15 10:08:10;;;;;;;10.90;10.00;;;14.40;99.90;;;;;;5052079;28;20421;-69
2021/10/15 10:10:38;;;;;;;11.57;10.50;;;14.40;99.90;;;;;;5052304;28;20428;-69
2021/10/15 10:13:05;;;;;;;12.40;11.20;;;14.50;99.90;;;;;;5052694;28;20832;-68
2021/10/15 10:15:34;;;;;;;13.53;12.23;;;14.50;99.90;;;;;;5052392;28;20425;-69
2021/10/15 10:20:45;;;;;;;11.60;10.50;;;14.60;99.90;;;;;;5052531;28;20408;-69
2021/10/15 10:23:22;;;;;;;11.77;10.80;;;14.70;99.90;;;;;;5052255;28;20401;-70
2021/10/15 10:25:48;;;;;;;11.00;10.10;;;14.70;99.90;;;;;;5052510;28;20444;-69
2021/10/15 10:28:20;;;;;;;11.60;10.40;;;14.70;99.90;;;;;;5051872;28;20426;-69
2021/10/15 10:30:49;;;;;;;12.20;11.10;;;14.80;99.90;;;;;;5050793;28;20404;-69
2021/10/15 10:33:15;;;;;;;13.03;11.93;;;14.80;99.90;;;;;;5049460;28;20936;-69
2021/10/15 10:35:43;;;;;;;11.77;10.77;;;14.80;99.90;;;;;;5051084;28;20443;-70
2021/10/15 10:38:21;;;;;;;11.40;10.50;;;14.80;99.90;;;;;;5051152;28;20401;-69
2021/10/15 10:41:02;;;;;;;12.67;11.47;;;14.90;99.90;;;;;;5051201;28;20422;-69
2021/10/15 10:43:33;;;;;;;12.17;11.07;;;15.00;99.90;;;;;;5050297;28;20437;-72
2021/10/15 10:46:19;;;;;;;10.80;9.90;;;15.10;99.90;;;;;;5051798;28;20507;-69
2021/10/15 10:48:51;;;;;;;10.57;9.77;;;15.20;99.90;;;;;;5052145;28;20408;-72
2021/10/15 10:51:25;;;;;;;10.27;9.37;;;15.20;99.90;;;;;;5051750;28;21029;-69
2021/10/15 10:54:06;;;;;;;9.40;8.60;;;15.30;99.90;;;;;;5055287;28;20474;-69
2021/10/15 10:56:52;;;;;;;9.07;8.30;;;15.30;99.90;;;;;;5045542;28;20900;-69
2021/10/15 10:59:21;;;;;;;9.07;8.27;;;15.30;99.90;;;;;;5051949;28;20777;-70
2021/10/15 11:01:55;;;;;;;8.50;7.80;;;15.20;99.90;;;;;;5051249;28;20475;-70
2021/10/15 11:04:43;;;;;;;8.60;7.77;;;15.20;99.90;;;;;;5050994;28;20556;-69
2021/10/15 11:07:21;;;;;;;9.37;8.57;;;15.20;99.90;;;;;;5051734;28;20431;-70
2021/10/15 11:10:21;;;;;;;9.63;8.93;;;15.20;99.90;;;;;;5041740;28;20405;-69
2021/10/15 11:12:46;;;;;;;8.17;7.57;;;15.20;99.90;;;;;;5050977;28;20405;-70
2021/10/15 11:15:14;;;;;;;8.17;7.47;;;15.20;99.90;;;;;;5051353;28;20901;-69
2021/10/15 11:17:42;;;;;;;6.77;6.37;;;15.30;99.90;;;;;;5052216;28;20177;-69
2021/10/15 11:20:18;;;;;;;7.70;7.10;;;15.30;99.90;;;;;;5051495;28;20482;-69
2021/10/15 11:22:48;;;;;;;6.93;6.53;;;15.30;99.90;;;;;;5050766;28;20409;-69
2021/10/15 11:25:14;;;;;;;6.23;5.70;;;15.30;99.90;;;;;;5050983;28;20468;-69
2021/10/15 11:27:40;;;;;;;5.87;5.47;;;15.30;99.90;;;;;;5052132;28;21020;-69
2021/10/15 11:30:11;;;;;;;5.37;4.90;;;15.30;99.90;;;;;;5052098;28;20211;-69
2021/10/15 11:32:40;;;;;;;5.07;4.67;;;15.40;99.90;;;;;;5055307;28;20476;-69
2021/10/15 11:35:14;;;;;;;4.03;3.83;;;15.30;99.90;;;;;;5055580;28;20538;-69
2021/10/15 11:38:06;;;;;;;4.67;4.23;;;15.30;99.90;;;;;;5055640;28;20961;-69
2021/10/15 11:40:32;;;;;;;4.83;4.53;;;15.30;99.90;;;;;;5054719;28;20422;-70
2021/10/15 11:43:10;;;;;;;4.40;4.17;;;15.30;99.90;;;;;;5054496;28;20888;-69
2021/10/15 11:45:38;;;;;;;5.37;4.90;;;15.40;99.90;;;;;;5054630;28;20228;-68
2021/10/15 11:48:13;;;;;;;4.50;4.30;;;15.30;99.90;;;;;;5055618;28;20415;-69
2021/10/15 11:51:17;;;;;;;5.00;4.70;;;15.40;99.90;;;;;;5054692;28;20505;-69
2021/10/15 11:53:47;;;;;;;6.07;5.67;;;15.40;99.90;;;;;;5013311;28;20421;-69
2021/10/15 11:56:28;;;;;;;4.60;3.40;;;15.30;99.90;;;;;;5012789;28;20432;-75
2021/10/15 11:58:55;;;;;;;4.70;2.87;;;15.50;99.90;;;;;;5026690;28;20417;-69
2021/10/15 12:01:29;;;;;;;2.80;2.60;;;15.50;99.90;;;;;;5034796;28;20881;-69
2021/10/15 12:03:55;;;;;;;4.77;4.13;;;15.70;99.90;;;;;;5034013;28;20483;-69
2021/10/15 12:06:30;;;;;;;5.90;5.40;;;15.80;99.90;;;;;;5034746;28;20823;-69
2021/10/15 12:09:17;;;;;;;3.00;2.90;;;15.90;99.90;;;;;;5035547;28;20412;-69
2021/10/15 12:11:45;;;;;;;3.00;2.70;;;16.00;99.90;;;;;;5035614;28;20470;-69
2021/10/15 12:14:16;;;;;;;3.00;2.80;;;16.20;99.90;;;;;;5049224;28;20980;-69
2021/10/15 12:16:42;;;;;;;2.90;2.70;;;16.20;99.90;;;;;;5054772;28;20443;-69
2021/10/15 12:19:31;;;;;;;4.83;4.57;;;16.30;99.90;;;;;;5054990;28;20884;-69
2021/10/15 12:21:57;;;;;;;3.20;2.37;;;16.40;99.90;;;;;;5055178;28;20186;-69
2021/10/15 12:24:43;;;;;;;2.10;1.90;;;16.60;99.90;;;;;;5054197;28;20543;-69
2021/10/15 12:27:26;;;;;;;1.90;1.80;;;16.60;99.90;;;;;;5055068;28;20178;-69
2021/10/15 12:30:00;;;;;;;4.37;2.60;;;16.60;99.60;;;;;;5054709;28;20420;-69
2021/10/15 12:32:29;;;;;;;4.33;3.90;;;16.60;99.70;;;;;;5054205;28;20855;-69
2021/10/15 12:34:54;;;;;;;3.03;2.40;;;16.60;99.20;;;;;;5054661;28;20417;-68
2021/10/15 12:37:49;;;;;;;2.80;2.00;;;16.60;99.60;;;;;;5052115;28;20447;-68
2021/10/15 12:40:24;;;;;;;2.17;2.00;;;16.60;99.90;;;;;;5053394;28;20258;-84
2021/10/15 12:42:50;;;;;;;3.00;2.80;;;16.60;99.90;;;;;;5054456;28;20738;-69
2021/10/15 12:45:16;;;;;;;3.60;3.40;;;16.60;98.70;;;;;;5054231;28;20502;-84
2021/10/15 12:48:00;;;;;;;2.90;2.70;;;16.50;97.60;;;;;;5054218;28;20173;-69
2021/10/15 12:50:28;;;;;;;3.10;2.33;;;16.50;97.80;;;;;;5052774;28;20419;-69
2021/10/15 12:52:54;;;;;;;6.13;2.40;;;16.40;97.40;;;;;;5054412;28;20461;-69
2021/10/15 12:55:25;;;;;;;6.80;2.53;;;16.40;97.30;;;;;;5053631;28;20419;-69
2021/10/15 12:58:00;;;;;;;2.90;2.70;;;16.40;97.80;;;;;;5054020;28;20775;-69
2021/10/15 13:00:26;;;;;;;3.27;3.00;;;16.40;96.30;;;;;;5053083;28;20476;-69
2021/10/15 13:03:05;;;;;;;5.30;2.70;;;16.50;99.10;;;;;;5051448;28;20428;-69
2021/10/15 13:05:32;;;;;;;2.87;2.70;;;16.40;96.80;;;;;;5051410;28;20279;-69
2021/10/15 13:07:59;;;;;;;2.50;2.40;;;16.50;96.50;;;;;;5052965;28;20420;-69
2021/10/15 13:10:26;;;;;;;3.53;3.23;;;16.50;96.80;;;;;;5053471;28;20935;-69
2021/10/15 13:12:53;;;;;;;3.70;2.20;;;16.50;96.90;;;;;;5053836;28;20420;-69